sensor_id;sensor_type;location;lat;lon;timestamp;P1;durP1;ratioP1;P2;durP2;ratioP2
15192;SDS011;7697;51.630;7.484;2022-08-03T00:02:50;2.25;;;2.05;;
15192;SDS011;7697;51.630;7.484;2022-08-03T00:07:52;2.03;;;1.83;;
15192;SDS011;7697;51.630;7.484;2022-08-03T00:12:54;2.00;;;1.80;;
15192;SDS011;7697;51.630;7.484;2022-08-03T00:17:57;2.28;;;2.08;;
15192;SDS011;7697;51.630;7.484;2022-08-03T00:22:58;2.08;;;1.88;;
15192;SDS011;7697;51.630;7.484;2022-08-03T00:28:00;2.35;;;2.00;;
15192;SDS011;7697;51.630;7.484;2022-08-03T00:33:03;2.85;;;1.60;;
15192;SDS011;7697;51.630;7.484;2022-08-03T00:38:05;2.10;;;1.90;;
15192;SDS011;7697;51.630;7.484;2022-08-03T00:43:07;2.40;;;2.20;;
15192;SDS011;7697;51.630;7.484;2022-08-03T00:48:11;2.22;;;2.00;;
15192;SDS011;7697;51.630;7.484;2022-08-03T00:53:12;2.58;;;2.08;;
15192;SDS011;7697;51.630;7.484;2022-08-03T00:58:14;2.30;;;2.10;;
15192;SDS011;7697;51.630;7.484;2022-08-03T01:03:18;3.42;;;2.30;;
15192;SDS011;7697;51.630;7.484;2022-08-03T01:08:21;2.70;;;2.40;;
15192;SDS011;7697;51.630;7.484;2022-08-03T01:13:30;2.30;;;2.10;;
15192;SDS011;7697;51.630;7.484;2022-08-03T01:18:44;2.13;;;1.92;;
15192;SDS011;7697;51.630;7.484;2022-08-03T01:23:55;2.50;;;2.08;;
15192;SDS011;7697;51.630;7.484;2022-08-03T01:29:07;2.10;;;1.90;;
15192;SDS011;7697;51.630;7.484;2022-08-03T01:34:27;2.80;;;2.13;;
15192;SDS011;7697;51.630;7.484;2022-08-03T01:39:32;2.63;;;2.13;;
15192;SDS011;7697;51.630;7.484;2022-08-03T01:44:39;2.00;;;1.90;;
15192;SDS011;7697;51.630;7.484;2022-08-03T01:49:44;4.38;;;2.05;;
15192;SDS011;7697;51.630;7.484;2022-08-03T01:54:48;2.67;;;2.38;;
15192;SDS011;7697;51.630;7.484;2022-08-03T01:59:52;2.65;;;2.30;;
15192;SDS011;7697;51.630;7.484;2022-08-03T02:04:57;2.53;;;2.20;;
15192;SDS011;7697;51.630;7.484;2022-08-03T02:10:02;2.40;;;2.20;;
15192;SDS011;7697;51.630;7.484;2022-08-03T02:15:05;2.42;;;2.08;;
15192;SDS011;7697;51.630;7.484;2022-08-03T02:20:10;2.28;;;2.03;;
15192;SDS011;7697;51.630;7.484;2022-08-03T02:25:13;5.75;;;2.58;;
15192;SDS011;7697;51.630;7.484;2022-08-03T02:30:16;2.10;;;1.95;;
15192;SDS011;7697;51.630;7.484;2022-08-03T02:35:21;3.78;;;2.30;;
15192;SDS011;7697;51.630;7.484;2022-08-03T02:40:27;2.28;;;2.08;;
15192;SDS011;7697;51.630;7.484;2022-08-03T02:45:30;2.60;;;2.28;;
15192;SDS011;7697;51.630;7.484;2022-08-03T02:50:37;2.88;;;2.63;;
15192;SDS011;7697;51.630;7.484;2022-08-03T02:55:40;2.22;;;2.03;;
15192;SDS011;7697;51.630;7.484;2022-08-03T03:00:43;2.30;;;2.10;;
15192;SDS011;7697;51.630;7.484;2022-08-03T03:05:46;3.60;;;2.53;;
15192;SDS011;7697;51.630;7.484;2022-08-03T03:10:49;2.67;;;2.40;;
15192;SDS011;7697;51.630;7.484;2022-08-03T03:15:52;2.33;;;2.13;;
15192;SDS011;7697;51.630;7.484;2022-08-03T03:20:58;2.83;;;2.20;;
15192;SDS011;7697;51.630;7.484;2022-08-03T03:26:02;2.50;;;2.30;;
15192;SDS011;7697;51.630;7.484;2022-08-03T03:31:04;2.33;;;2.13;;
15192;SDS011;7697;51.630;7.484;2022-08-03T03:36:08;2.40;;;2.17;;
15192;SDS011;7697;51.630;7.484;2022-08-03T03:41:10;2.80;;;2.30;;
15192;SDS011;7697;51.630;7.484;2022-08-03T03:46:12;2.95;;;2.10;;
15192;SDS011;7697;51.630;7.484;2022-08-03T03:51:15;2.50;;;2.25;;
15192;SDS011;7697;51.630;7.484;2022-08-03T03:56:17;2.50;;;2.30;;
15192;SDS011;7697;51.630;7.484;2022-08-03T04:01:19;2.70;;;2.40;;
15192;SDS011;7697;51.630;7.484;2022-08-03T04:06:22;2.42;;;2.22;;
15192;SDS011;7697;51.630;7.484;2022-08-03T04:11:42;2.50;;;2.30;;
15192;SDS011;7697;51.630;7.484;2022-08-03T04:16:48;2.22;;;2.03;;
15192;SDS011;7697;51.630;7.484;2022-08-03T04:21:54;2.63;;;2.35;;
15192;SDS011;7697;51.630;7.484;2022-08-03T04:26:59;2.60;;;2.28;;
15192;SDS011;7697;51.630;7.484;2022-08-03T04:32:06;2.55;;;2.35;;
15192;SDS011;7697;51.630;7.484;2022-08-03T04:37:11;2.72;;;2.28;;
15192;SDS011;7697;51.630;7.484;2022-08-03T04:42:15;2.13;;;1.92;;
15192;SDS011;7697;51.630;7.484;2022-08-03T04:47:19;4.45;;;2.63;;
15192;SDS011;7697;51.630;7.484;2022-08-03T04:52:23;2.90;;;2.40;;
15192;SDS011;7697;51.630;7.484;2022-08-03T04:57:25;3.15;;;2.53;;
15192;SDS011;7697;51.630;7.484;2022-08-03T05:02:26;3.17;;;2.53;;
15192;SDS011;7697;51.630;7.484;2022-08-03T05:07:29;3.38;;;2.50;;
15192;SDS011;7697;51.630;7.484;2022-08-03T05:12:31;2.42;;;2.22;;
15192;SDS011;7697;51.630;7.484;2022-08-03T05:17:33;4.82;;;2.80;;
15192;SDS011;7697;51.630;7.484;2022-08-03T05:22:37;2.60;;;2.40;;
15192;SDS011;7697;51.630;7.484;2022-08-03T05:27:38;2.40;;;2.20;;
15192;SDS011;7697;51.630;7.484;2022-08-03T05:32:42;3.83;;;2.67;;
15192;SDS011;7697;51.630;7.484;2022-08-03T05:37:45;3.72;;;2.50;;
15192;SDS011;7697;51.630;7.484;2022-08-03T05:42:46;2.90;;;2.47;;
15192;SDS011;7697;51.630;7.484;2022-08-03T05:47:48;3.78;;;2.58;;
15192;SDS011;7697;51.630;7.484;2022-08-03T05:52:53;3.58;;;2.70;;
15192;SDS011;7697;51.630;7.484;2022-08-03T05:57:56;2.60;;;2.40;;
15192;SDS011;7697;51.630;7.484;2022-08-03T06:02:58;3.28;;;2.55;;
15192;SDS011;7697;51.630;7.484;2022-08-03T06:08:01;6.53;;;3.70;;
15192;SDS011;7697;51.630;7.484;2022-08-03T06:13:03;6.40;;;3.95;;
15192;SDS011;7697;51.630;7.484;2022-08-03T06:18:05;4.85;;;3.60;;
15192;SDS011;7697;51.630;7.484;2022-08-03T06:23:08;4.70;;;3.42;;
15192;SDS011;7697;51.630;7.484;2022-08-03T06:28:10;5.68;;;2.63;;
15192;SDS011;7697;51.630;7.484;2022-08-03T06:33:13;4.43;;;2.75;;
15192;SDS011;7697;51.630;7.484;2022-08-03T06:38:17;3.50;;;2.80;;
15192;SDS011;7697;51.630;7.484;2022-08-03T06:43:18;3.40;;;2.53;;
15192;SDS011;7697;51.630;7.484;2022-08-03T06:48:20;4.57;;;2.70;;
15192;SDS011;7697;51.630;7.484;2022-08-03T06:53:23;4.38;;;2.80;;
15192;SDS011;7697;51.630;7.484;2022-08-03T06:58:25;3.63;;;3.05;;
15192;SDS011;7697;51.630;7.484;2022-08-03T07:03:27;4.90;;;3.50;;
15192;SDS011;7697;51.630;7.484;2022-08-03T07:08:30;3.67;;;3.22;;
15192;SDS011;7697;51.630;7.484;2022-08-03T07:13:31;4.60;;;2.50;;
15192;SDS011;7697;51.630;7.484;2022-08-03T07:18:36;3.83;;;2.35;;
15192;SDS011;7697;51.630;7.484;2022-08-03T07:23:39;2.97;;;2.47;;
15192;SDS011;7697;51.630;7.484;2022-08-03T07:28:41;2.78;;;2.20;;
15192;SDS011;7697;51.630;7.484;2022-08-03T07:33:43;4.47;;;2.87;;
15192;SDS011;7697;51.630;7.484;2022-08-03T07:38:46;5.60;;;2.58;;
15192;SDS011;7697;51.630;7.484;2022-08-03T07:43:48;2.60;;;2.10;;
15192;SDS011;7697;51.630;7.484;2022-08-03T07:48:50;3.80;;;2.42;;
15192;SDS011;7697;51.630;7.484;2022-08-03T07:53:53;4.10;;;2.90;;
15192;SDS011;7697;51.630;7.484;2022-08-03T07:58:56;3.50;;;2.33;;
15192;SDS011;7697;51.630;7.484;2022-08-03T08:03:58;2.58;;;1.92;;
15192;SDS011;7697;51.630;7.484;2022-08-03T08:09:01;3.08;;;2.30;;
15192;SDS011;7697;51.630;7.484;2022-08-03T08:14:03;3.28;;;2.15;;
15192;SDS011;7697;51.630;7.484;2022-08-03T08:19:06;6.40;;;2.63;;
15192;SDS011;7697;51.630;7.484;2022-08-03T08:24:09;2.78;;;2.17;;
15192;SDS011;7697;51.630;7.484;2022-08-03T08:29:11;2.70;;;2.50;;
15192;SDS011;7697;51.630;7.484;2022-08-03T08:34:13;3.73;;;2.33;;
15192;SDS011;7697;51.630;7.484;2022-08-03T08:39:16;3.70;;;2.50;;
15192;SDS011;7697;51.630;7.484;2022-08-03T08:44:18;3.05;;;2.38;;
15192;SDS011;7697;51.630;7.484;2022-08-03T08:49:19;4.75;;;2.42;;
15192;SDS011;7697;51.630;7.484;2022-08-03T08:54:25;2.88;;;2.40;;
15192;SDS011;7697;51.630;7.484;2022-08-03T08:59:27;3.78;;;2.13;;
15192;SDS011;7697;51.630;7.484;2022-08-03T09:04:33;3.47;;;2.60;;
15192;SDS011;7697;51.630;7.484;2022-08-03T09:09:36;3.30;;;2.30;;
15192;SDS011;7697;51.630;7.484;2022-08-03T09:14:38;4.13;;;2.40;;
15192;SDS011;7697;51.630;7.484;2022-08-03T09:19:39;3.80;;;2.42;;
15192;SDS011;7697;51.630;7.484;2022-08-03T09:24:54;4.97;;;2.60;;
15192;SDS011;7697;51.630;7.484;2022-08-03T09:29:57;4.10;;;2.25;;
15192;SDS011;7697;51.630;7.484;2022-08-03T09:35:02;4.10;;;2.38;;
15192;SDS011;7697;51.630;7.484;2022-08-03T09:40:06;2.55;;;2.35;;
15192;SDS011;7697;51.630;7.484;2022-08-03T09:45:09;2.63;;;1.92;;
15192;SDS011;7697;51.630;7.484;2022-08-03T09:50:26;2.92;;;2.10;;
15192;SDS011;7697;51.630;7.484;2022-08-03T09:55:30;2.55;;;1.98;;
15192;SDS011;7697;51.630;7.484;2022-08-03T10:00:31;3.67;;;2.20;;
15192;SDS011;7697;51.630;7.484;2022-08-03T10:05:53;2.10;;;1.70;;
15192;SDS011;7697;51.630;7.484;2022-08-03T10:10:56;5.75;;;2.60;;
15192;SDS011;7697;51.630;7.484;2022-08-03T10:15:59;2.97;;;2.30;;
15192;SDS011;7697;51.630;7.484;2022-08-03T10:21:03;4.53;;;1.90;;
15192;SDS011;7697;51.630;7.484;2022-08-03T10:26:10;2.42;;;2.15;;
15192;SDS011;7697;51.630;7.484;2022-08-03T10:31:16;4.07;;;2.03;;
15192;SDS011;7697;51.630;7.484;2022-08-03T10:36:20;5.73;;;2.30;;
15192;SDS011;7697;51.630;7.484;2022-08-03T10:41:25;3.95;;;1.98;;
15192;SDS011;7697;51.630;7.484;2022-08-03T10:46:32;4.00;;;1.90;;
15192;SDS011;7697;51.630;7.484;2022-08-03T10:51:36;3.58;;;1.80;;
15192;SDS011;7697;51.630;7.484;2022-08-03T10:56:40;3.20;;;1.70;;
15192;SDS011;7697;51.630;7.484;2022-08-03T11:02:00;4.68;;;1.77;;
15192;SDS011;7697;51.630;7.484;2022-08-03T11:07:17;3.28;;;2.20;;
15192;SDS011;7697;51.630;7.484;2022-08-03T11:12:23;2.90;;;1.63;;
15192;SDS011;7697;51.630;7.484;2022-08-03T11:17:26;1.92;;;1.55;;
15192;SDS011;7697;51.630;7.484;2022-08-03T11:27:56;2.85;;;1.80;;
15192;SDS011;7697;51.630;7.484;2022-08-03T11:33:28;3.67;;;1.85;;
15192;SDS011;7697;51.630;7.484;2022-08-03T11:38:30;5.25;;;1.90;;
15192;SDS011;7697;51.630;7.484;2022-08-03T11:43:45;3.45;;;1.88;;
15192;SDS011;7697;51.630;7.484;2022-08-03T11:48:47;4.78;;;2.40;;
15192;SDS011;7697;51.630;7.484;2022-08-03T11:53:51;3.35;;;1.98;;
15192;SDS011;7697;51.630;7.484;2022-08-03T11:58:56;2.80;;;2.05;;
15192;SDS011;7697;51.630;7.484;2022-08-03T12:04:01;4.18;;;2.00;;
15192;SDS011;7697;51.630;7.484;2022-08-03T12:09:13;3.33;;;1.95;;
15192;SDS011;7697;51.630;7.484;2022-08-03T12:14:17;3.97;;;1.90;;
15192;SDS011;7697;51.630;7.484;2022-08-03T12:19:19;4.18;;;2.35;;
15192;SDS011;7697;51.630;7.484;2022-08-03T12:24:21;3.53;;;1.83;;
15192;SDS011;7697;51.630;7.484;2022-08-03T12:29:24;3.78;;;2.20;;
15192;SDS011;7697;51.630;7.484;2022-08-03T12:39:48;4.70;;;1.80;;
15192;SDS011;7697;51.630;7.484;2022-08-03T12:44:52;5.55;;;2.08;;
15192;SDS011;7697;51.630;7.484;2022-08-03T12:49:53;4.75;;;2.20;;
15192;SDS011;7697;51.630;7.484;2022-08-03T12:54:56;3.00;;;2.00;;
15192;SDS011;7697;51.630;7.484;2022-08-03T13:00:08;3.35;;;1.92;;
15192;SDS011;7697;51.630;7.484;2022-08-03T13:05:11;2.92;;;1.90;;
15192;SDS011;7697;51.630;7.484;2022-08-03T13:10:26;4.75;;;2.10;;
15192;SDS011;7697;51.630;7.484;2022-08-03T13:15:30;5.10;;;1.80;;
15192;SDS011;7697;51.630;7.484;2022-08-03T13:20:31;2.95;;;1.95;;
15192;SDS011;7697;51.630;7.484;2022-08-03T13:25:33;5.93;;;1.92;;
15192;SDS011;7697;51.630;7.484;2022-08-03T13:30:36;2.55;;;1.67;;
15192;SDS011;7697;51.630;7.484;2022-08-03T13:35:38;2.42;;;1.50;;
15192;SDS011;7697;51.630;7.484;2022-08-03T13:40:40;4.57;;;2.00;;
15192;SDS011;7697;51.630;7.484;2022-08-03T13:45:43;8.13;;;1.80;;
15192;SDS011;7697;51.630;7.484;2022-08-03T13:50:44;3.00;;;1.33;;
15192;SDS011;7697;51.630;7.484;2022-08-03T13:55:46;2.47;;;1.60;;
15192;SDS011;7697;51.630;7.484;2022-08-03T14:00:49;2.13;;;1.60;;
15192;SDS011;7697;51.630;7.484;2022-08-03T14:05:51;2.72;;;1.58;;
15192;SDS011;7697;51.630;7.484;2022-08-03T14:10:52;2.00;;;1.52;;
15192;SDS011;7697;51.630;7.484;2022-08-03T14:15:55;2.08;;;1.30;;
15192;SDS011;7697;51.630;7.484;2022-08-03T14:20:57;1.52;;;1.30;;
15192;SDS011;7697;51.630;7.484;2022-08-03T14:25:59;3.17;;;1.50;;
15192;SDS011;7697;51.630;7.484;2022-08-03T14:31:02;2.83;;;1.52;;
15192;SDS011;7697;51.630;7.484;2022-08-03T14:36:05;3.35;;;1.40;;
15192;SDS011;7697;51.630;7.484;2022-08-03T14:41:06;3.15;;;1.50;;
15192;SDS011;7697;51.630;7.484;2022-08-03T14:46:09;1.90;;;1.48;;
15192;SDS011;7697;51.630;7.484;2022-08-03T14:51:11;2.75;;;1.52;;
15192;SDS011;7697;51.630;7.484;2022-08-03T14:56:12;2.85;;;1.55;;
15192;SDS011;7697;51.630;7.484;2022-08-03T15:01:15;2.63;;;1.60;;
15192;SDS011;7697;51.630;7.484;2022-08-03T15:06:17;2.25;;;1.55;;
15192;SDS011;7697;51.630;7.484;2022-08-03T15:11:19;2.72;;;1.48;;
15192;SDS011;7697;51.630;7.484;2022-08-03T15:16:22;2.70;;;2.03;;
15192;SDS011;7697;51.630;7.484;2022-08-03T15:21:23;2.28;;;1.60;;
15192;SDS011;7697;51.630;7.484;2022-08-03T15:26:25;3.28;;;1.98;;
15192;SDS011;7697;51.630;7.484;2022-08-03T15:31:28;2.17;;;1.33;;
15192;SDS011;7697;51.630;7.484;2022-08-03T15:36:32;2.20;;;1.65;;
15192;SDS011;7697;51.630;7.484;2022-08-03T15:41:34;2.03;;;1.50;;
15192;SDS011;7697;51.630;7.484;2022-08-03T15:46:37;2.10;;;1.63;;
15192;SDS011;7697;51.630;7.484;2022-08-03T15:51:39;2.33;;;1.60;;
15192;SDS011;7697;51.630;7.484;2022-08-03T15:56:41;2.15;;;1.70;;
15192;SDS011;7697;51.630;7.484;2022-08-03T16:01:45;2.20;;;1.55;;
15192;SDS011;7697;51.630;7.484;2022-08-03T16:06:47;2.03;;;1.30;;
15192;SDS011;7697;51.630;7.484;2022-08-03T16:11:49;3.95;;;1.73;;
15192;SDS011;7697;51.630;7.484;2022-08-03T16:16:52;1.67;;;1.40;;
15192;SDS011;7697;51.630;7.484;2022-08-03T16:21:54;4.32;;;1.60;;
15192;SDS011;7697;51.630;7.484;2022-08-03T16:26:55;3.53;;;1.80;;
15192;SDS011;7697;51.630;7.484;2022-08-03T16:31:58;4.85;;;1.38;;
15192;SDS011;7697;51.630;7.484;2022-08-03T16:37:05;2.05;;;1.50;;
15192;SDS011;7697;51.630;7.484;2022-08-03T16:42:08;4.07;;;1.65;;
15192;SDS011;7697;51.630;7.484;2022-08-03T16:47:11;1.98;;;1.50;;
15192;SDS011;7697;51.630;7.484;2022-08-03T16:52:13;2.15;;;1.40;;
15192;SDS011;7697;51.630;7.484;2022-08-03T16:57:15;1.40;;;1.23;;
15192;SDS011;7697;51.630;7.484;2022-08-03T17:02:19;1.40;;;1.20;;
15192;SDS011;7697;51.630;7.484;2022-08-03T17:07:22;2.58;;;1.55;;
15192;SDS011;7697;51.630;7.484;2022-08-03T17:12:24;2.87;;;1.80;;
15192;SDS011;7697;51.630;7.484;2022-08-03T17:17:28;1.98;;;1.40;;
15192;SDS011;7697;51.630;7.484;2022-08-03T17:22:32;2.08;;;1.50;;
15192;SDS011;7697;51.630;7.484;2022-08-03T17:27:36;2.05;;;1.45;;
15192;SDS011;7697;51.630;7.484;2022-08-03T17:32:43;2.22;;;1.50;;
15192;SDS011;7697;51.630;7.484;2022-08-03T17:37:46;2.47;;;1.23;;
15192;SDS011;7697;51.630;7.484;2022-08-03T17:42:48;3.17;;;1.20;;
15192;SDS011;7697;51.630;7.484;2022-08-03T17:47:51;2.63;;;1.50;;
15192;SDS011;7697;51.630;7.484;2022-08-03T17:52:56;1.85;;;1.10;;
15192;SDS011;7697;51.630;7.484;2022-08-03T17:58:04;1.33;;;1.10;;
15192;SDS011;7697;51.630;7.484;2022-08-03T18:03:18;1.77;;;1.23;;
15192;SDS011;7697;51.630;7.484;2022-08-03T18:08:25;2.10;;;1.00;;
15192;SDS011;7697;51.630;7.484;2022-08-03T18:13:29;1.23;;;0.93;;
15192;SDS011;7697;51.630;7.484;2022-08-03T18:18:41;1.70;;;1.15;;
15192;SDS011;7697;51.630;7.484;2022-08-03T18:23:44;1.65;;;1.17;;
15192;SDS011;7697;51.630;7.484;2022-08-03T18:28:49;2.67;;;1.17;;
15192;SDS011;7697;51.630;7.484;2022-08-03T18:33:54;1.48;;;1.13;;
15192;SDS011;7697;51.630;7.484;2022-08-03T18:38:56;1.80;;;1.00;;
15192;SDS011;7697;51.630;7.484;2022-08-03T18:43:59;1.27;;;0.88;;
15192;SDS011;7697;51.630;7.484;2022-08-03T18:49:05;1.65;;;1.00;;
15192;SDS011;7697;51.630;7.484;2022-08-03T18:54:14;1.15;;;1.02;;
15192;SDS011;7697;51.630;7.484;2022-08-03T18:59:21;2.10;;;1.00;;
15192;SDS011;7697;51.630;7.484;2022-08-03T19:04:30;1.23;;;0.80;;
15192;SDS011;7697;51.630;7.484;2022-08-03T19:09:36;1.00;;;0.90;;
15192;SDS011;7697;51.630;7.484;2022-08-03T19:14:48;1.40;;;1.10;;
15192;SDS011;7697;51.630;7.484;2022-08-03T19:19:55;1.85;;;1.10;;
15192;SDS011;7697;51.630;7.484;2022-08-03T19:24:58;2.85;;;1.20;;
15192;SDS011;7697;51.630;7.484;2022-08-03T19:30:02;2.40;;;1.15;;
15192;SDS011;7697;51.630;7.484;2022-08-03T19:35:07;1.20;;;1.02;;
15192;SDS011;7697;51.630;7.484;2022-08-03T19:40:10;1.77;;;1.02;;
15192;SDS011;7697;51.630;7.484;2022-08-03T19:45:14;1.77;;;1.20;;
15192;SDS011;7697;51.630;7.484;2022-08-03T19:50:22;3.70;;;1.45;;
15192;SDS011;7697;51.630;7.484;2022-08-03T19:55:25;2.10;;;1.13;;
15192;SDS011;7697;51.630;7.484;2022-08-03T20:00:29;2.13;;;1.10;;
15192;SDS011;7697;51.630;7.484;2022-08-03T20:05:32;1.65;;;1.05;;
15192;SDS011;7697;51.630;7.484;2022-08-03T20:10:34;2.40;;;1.27;;
15192;SDS011;7697;51.630;7.484;2022-08-03T20:15:51;1.70;;;1.13;;
15192;SDS011;7697;51.630;7.484;2022-08-03T20:20:53;6.82;;;1.30;;
15192;SDS011;7697;51.630;7.484;2022-08-03T20:25:58;3.15;;;1.50;;
15192;SDS011;7697;51.630;7.484;2022-08-03T20:31:02;1.67;;;1.13;;
15192;SDS011;7697;51.630;7.484;2022-08-03T20:36:04;3.97;;;1.20;;
15192;SDS011;7697;51.630;7.484;2022-08-03T20:41:06;3.22;;;1.58;;
15192;SDS011;7697;51.630;7.484;2022-08-03T20:46:09;2.50;;;1.23;;
15192;SDS011;7697;51.630;7.484;2022-08-03T20:51:11;2.67;;;1.33;;
15192;SDS011;7697;51.630;7.484;2022-08-03T20:56:13;2.55;;;1.27;;
15192;SDS011;7697;51.630;7.484;2022-08-03T21:01:16;3.70;;;1.30;;
15192;SDS011;7697;51.630;7.484;2022-08-03T21:06:18;3.40;;;1.42;;
15192;SDS011;7697;51.630;7.484;2022-08-03T21:11:23;4.07;;;1.83;;
15192;SDS011;7697;51.630;7.484;2022-08-03T21:16:30;2.42;;;1.33;;
15192;SDS011;7697;51.630;7.484;2022-08-03T21:21:37;1.83;;;1.35;;
15192;SDS011;7697;51.630;7.484;2022-08-03T21:26:39;2.88;;;1.40;;
15192;SDS011;7697;51.630;7.484;2022-08-03T21:31:42;2.22;;;1.27;;
15192;SDS011;7697;51.630;7.484;2022-08-03T21:36:44;2.05;;;1.30;;
15192;SDS011;7697;51.630;7.484;2022-08-03T21:41:46;3.53;;;1.50;;
15192;SDS011;7697;51.630;7.484;2022-08-03T21:46:49;1.80;;;1.10;;
15192;SDS011;7697;51.630;7.484;2022-08-03T21:51:55;1.67;;;1.02;;
15192;SDS011;7697;51.630;7.484;2022-08-03T21:56:59;4.72;;;1.60;;
15192;SDS011;7697;51.630;7.484;2022-08-03T22:02:05;2.72;;;1.50;;
15192;SDS011;7697;51.630;7.484;2022-08-03T22:07:08;2.72;;;1.42;;
15192;SDS011;7697;51.630;7.484;2022-08-03T22:12:10;2.13;;;1.30;;
15192;SDS011;7697;51.630;7.484;2022-08-03T22:17:14;3.55;;;1.50;;
15192;SDS011;7697;51.630;7.484;2022-08-03T22:22:16;2.00;;;1.17;;
15192;SDS011;7697;51.630;7.484;2022-08-03T22:27:18;4.65;;;1.88;;
15192;SDS011;7697;51.630;7.484;2022-08-03T22:32:34;2.80;;;1.63;;
15192;SDS011;7697;51.630;7.484;2022-08-03T22:37:39;2.20;;;1.30;;
15192;SDS011;7697;51.630;7.484;2022-08-03T22:42:42;3.03;;;1.60;;
15192;SDS011;7697;51.630;7.484;2022-08-03T22:47:49;3.00;;;1.48;;
15192;SDS011;7697;51.630;7.484;2022-08-03T22:52:52;2.40;;;1.30;;
15192;SDS011;7697;51.630;7.484;2022-08-03T22:57:54;3.45;;;1.67;;
15192;SDS011;7697;51.630;7.484;2022-08-03T23:02:57;2.38;;;1.50;;
15192;SDS011;7697;51.630;7.484;2022-08-03T23:08:02;2.65;;;1.50;;
15192;SDS011;7697;51.630;7.484;2022-08-03T23:13:05;2.67;;;1.50;;
15192;SDS011;7697;51.630;7.484;2022-08-03T23:18:09;2.67;;;1.42;;
15192;SDS011;7697;51.630;7.484;2022-08-03T23:23:11;2.78;;;1.40;;
15192;SDS011;7697;51.630;7.484;2022-08-03T23:28:13;3.22;;;1.40;;
15192;SDS011;7697;51.630;7.484;2022-08-03T23:33:17;2.33;;;1.45;;
15192;SDS011;7697;51.630;7.484;2022-08-03T23:38:20;3.28;;;1.42;;
15192;SDS011;7697;51.630;7.484;2022-08-03T23:43:24;2.10;;;1.30;;
15192;SDS011;7697;51.630;7.484;2022-08-03T23:48:29;3.53;;;1.40;;
15192;SDS011;7697;51.630;7.484;2022-08-03T23:53:34;3.58;;;1.48;;
15192;SDS011;7697;51.630;7.484;2022-08-03T23:58:45;1.95;;;1.20;;
